createdAt,value
2022-09-06T00:03:43.396Z,14.74
2022-09-06T00:08:48.412Z,15.27
2022-09-06T00:13:52.024Z,15.38
2022-09-06T00:18:56.468Z,15.10
2022-09-06T00:23:59.935Z,13.65
2022-09-06T00:29:03.352Z,13.47
2022-09-06T00:34:07.074Z,14.51
2022-09-06T00:39:10.724Z,14.03
2022-09-06T00:44:14.492Z,15.00
2022-09-06T00:49:29.490Z,15.07
2022-09-06T00:54:33.435Z,14.85
2022-09-06T00:59:40.585Z,13.24
2022-09-06T01:04:45.846Z,14.22
2022-09-06T01:10:24.917Z,14.93
2022-09-06T01:15:40.959Z,14.88
2022-09-06T01:21:16.705Z,15.00
2022-09-06T01:26:57.915Z,14.80
2022-09-06T01:32:14.021Z,14.19
2022-09-06T01:37:21.067Z,15.27
2022-09-06T01:42:29.118Z,14.28
2022-09-06T01:47:57.218Z,15.17
2022-09-06T01:53:25.356Z,15.07
2022-09-06T01:58:51.766Z,15.09
2022-09-06T02:04:04.510Z,15.23
2022-09-06T02:09:12.772Z,14.71
2022-09-06T02:14:23.599Z,14.36
2022-09-06T02:19:50.203Z,15.09
2022-09-06T02:24:59.381Z,14.61
2022-09-06T02:30:04.009Z,13.91
2022-09-06T02:35:10.139Z,15.14
2022-09-06T02:40:14.130Z,14.59
2022-09-06T02:45:17.749Z,14.66
2022-09-06T02:50:21.688Z,14.57
2022-09-06T02:55:25.186Z,14.45
2022-09-06T03:00:30.586Z,14.59
2022-09-06T03:05:35.555Z,14.44
2022-09-06T03:10:39.584Z,13.97
2022-09-06T03:15:44.810Z,14.41
2022-09-06T03:20:51.193Z,14.54
2022-09-06T03:25:55.779Z,13.44
2022-09-06T03:30:59.418Z,14.05
2022-09-06T03:36:04.139Z,14.46
2022-09-06T03:41:07.427Z,14.56
2022-09-06T03:46:11.149Z,14.31
2022-09-06T03:51:14.806Z,13.51
2022-09-06T03:56:18.541Z,13.26
2022-09-06T04:01:22.259Z,13.66
2022-09-06T04:06:28.991Z,13.83
2022-09-06T04:11:32.546Z,13.98
2022-09-06T04:16:36.299Z,13.75
2022-09-06T04:21:39.922Z,13.46
2022-09-06T04:26:43.554Z,13.30
2022-09-06T04:31:47.373Z,13.64
2022-09-06T04:36:51.109Z,13.55
2022-09-06T04:41:54.769Z,13.43
2022-09-06T04:47:13.543Z,13.83
2022-09-06T04:52:17.592Z,14.08
2022-09-06T04:57:21.538Z,14.10
2022-09-06T05:02:25.318Z,13.95
2022-09-06T05:07:29.130Z,14.23
2022-09-06T05:12:32.927Z,14.21
2022-09-06T05:17:36.687Z,14.38
2022-09-06T05:22:41.145Z,14.70
2022-09-06T05:27:44.936Z,14.75
2022-09-06T05:32:49.490Z,15.29
2022-09-06T05:37:52.966Z,14.98
2022-09-06T05:42:56.614Z,15.75
2022-09-06T05:48:00.162Z,15.76
2022-09-06T05:53:03.718Z,15.84
2022-09-06T05:58:07.402Z,15.94
2022-09-06T06:03:11.104Z,16.58
2022-09-06T06:08:14.615Z,16.72
2022-09-06T06:13:18.812Z,16.74
2022-09-06T06:18:22.653Z,16.71
2022-09-06T06:23:27.104Z,17.01
2022-09-06T06:28:30.782Z,17.71
2022-09-06T06:33:34.723Z,17.22
2022-09-06T06:38:44.644Z,17.46
2022-09-06T06:43:48.329Z,17.77
2022-09-06T06:48:54.931Z,18.13
2022-09-06T06:53:59.228Z,18.46
2022-09-06T06:59:05.449Z,19.04
2022-09-06T07:04:11.507Z,19.12
2022-09-06T07:09:15.574Z,19.33
2022-09-06T07:14:19.481Z,20.06
2022-09-06T07:24:46.793Z,20.69
2022-09-06T07:29:50.587Z,21.13
2022-09-06T07:34:54.462Z,21.23
2022-09-06T07:39:58.132Z,21.86
2022-09-06T07:45:02.130Z,22.44
2022-09-06T07:55:29.826Z,22.89
2022-09-06T08:00:33.784Z,23.27
2022-09-06T08:11:02.173Z,24.30
2022-09-06T08:16:08.281Z,24.64
2022-09-06T08:21:16.416Z,24.34
2022-09-06T08:26:21.868Z,24.30
2022-09-06T08:31:25.507Z,25.19
2022-09-06T08:36:32.973Z,25.29
2022-09-06T08:41:52.899Z,26.11
2022-09-06T08:47:35.847Z,24.98
2022-09-06T09:02:19.367Z,26.43
2022-09-06T09:22:20.319Z,28.31
2022-09-06T09:27:27.069Z,28.65
2022-09-06T09:32:42.437Z,27.44
2022-09-06T10:12:37.269Z,27.69
2022-09-06T11:07:00.103Z,28.10
2022-09-06T11:24:00.404Z,28.83
2022-09-06T11:29:09.101Z,28.96
2022-09-06T11:34:21.774Z,27.86
2022-09-06T11:44:59.957Z,28.51
2022-09-06T11:50:21.964Z,28.30
2022-09-06T11:55:37.238Z,27.97
2022-09-06T12:00:40.767Z,28.07
2022-09-06T12:06:24.225Z,28.06
2022-09-06T12:11:46.841Z,28.05
2022-09-06T12:17:03.095Z,27.96
2022-09-06T12:22:47.444Z,27.62
2022-09-06T12:27:57.683Z,28.23
2022-09-06T12:33:03.375Z,28.46
2022-09-06T12:38:14.771Z,28.22
2022-09-06T12:43:18.595Z,28.23
2022-09-06T12:48:31.135Z,28.28
2022-09-06T12:53:35.950Z,26.93
2022-09-06T12:58:40.789Z,27.09
2022-09-06T13:03:54.817Z,27.95
2022-09-06T13:08:59.668Z,28.57
2022-09-06T13:14:14.057Z,27.76
2022-09-06T13:19:20.143Z,27.91
2022-09-06T13:24:26.699Z,28.03
2022-09-06T13:29:32.524Z,28.24
2022-09-06T13:34:35.362Z,28.61
2022-09-06T13:39:42.498Z,28.45
2022-09-06T13:44:46.569Z,28.23
2022-09-06T13:49:56.195Z,27.29
2022-09-06T13:55:00.230Z,28.00
2022-09-06T14:00:03.313Z,28.15
2022-09-06T14:05:06.491Z,27.39
2022-09-06T14:10:09.675Z,28.22
2022-09-06T14:15:12.567Z,28.14
2022-09-06T14:20:15.606Z,27.20
2022-09-06T14:25:18.652Z,28.34
2022-09-06T14:30:24.934Z,27.77
2022-09-06T14:35:29.137Z,27.65
2022-09-06T14:40:36.029Z,27.78
2022-09-06T14:45:40.031Z,27.99
2022-09-06T14:50:43.232Z,28.32
2022-09-06T14:55:46.164Z,28.01
2022-09-06T15:00:51.251Z,27.77
2022-09-06T15:05:54.044Z,27.48
2022-09-06T15:10:57.414Z,26.69
2022-09-06T15:16:00.566Z,27.61
2022-09-06T15:21:14.276Z,27.53
2022-09-06T15:26:17.333Z,27.35
2022-09-06T15:31:21.089Z,27.67
2022-09-06T15:36:24.236Z,27.00
2022-09-06T15:41:29.331Z,27.03
2022-09-06T15:46:41.391Z,27.67
2022-09-06T15:51:44.491Z,27.05
2022-09-06T15:56:47.486Z,27.59
2022-09-06T16:01:50.379Z,26.60
2022-09-06T16:06:53.268Z,26.77
2022-09-06T16:11:56.051Z,27.11
2022-09-06T16:16:59.040Z,26.67
2022-09-06T16:22:01.984Z,26.17
2022-09-06T16:27:05.119Z,26.93
2022-09-06T16:32:08.679Z,26.87
2022-09-06T16:37:11.664Z,25.83
2022-09-06T16:42:14.626Z,25.55
2022-09-06T16:47:17.982Z,25.36
2022-09-06T16:52:20.926Z,25.74
2022-09-06T16:57:25.727Z,25.30
2022-09-06T17:02:28.754Z,26.22
2022-09-06T17:07:34.015Z,25.49
2022-09-06T17:12:37.161Z,24.80
2022-09-06T17:17:40.967Z,25.20
2022-09-06T17:22:44.035Z,24.58
2022-09-06T17:27:49.131Z,23.76
2022-09-06T17:32:53.804Z,23.85
2022-09-06T17:37:56.960Z,23.05
2022-09-06T17:42:59.893Z,22.38
2022-09-06T17:48:03.741Z,23.16
2022-09-06T17:53:07.911Z,21.18
2022-09-06T17:58:11.222Z,22.48
2022-09-06T18:03:13.983Z,20.34
2022-09-06T18:08:17.743Z,21.49
2022-09-06T18:13:20.487Z,21.41
2022-09-06T18:23:31.249Z,20.02
2022-09-06T18:28:37.188Z,20.33
2022-09-06T18:33:42.409Z,20.42
2022-09-06T18:38:47.242Z,20.63
2022-09-06T18:43:55.212Z,20.94
2022-09-06T18:48:59.919Z,20.15
2022-09-06T18:54:03.684Z,20.01
2022-09-06T18:59:09.110Z,19.42
2022-09-06T19:04:15.050Z,19.27
2022-09-06T19:09:19.191Z,19.51
2022-09-06T19:14:24.324Z,18.99
2022-09-06T19:19:28.121Z,18.78
2022-09-06T19:24:32.793Z,19.09
2022-09-06T19:29:37.436Z,19.39
2022-09-06T19:34:42.002Z,20.04
2022-09-06T19:39:45.585Z,18.70
2022-09-06T19:44:49.257Z,19.51
2022-09-06T19:49:53.163Z,19.69
2022-09-06T19:55:04.127Z,19.62
2022-09-06T20:00:08.532Z,18.98
2022-09-06T20:05:12.376Z,19.65
2022-09-06T20:10:16.873Z,19.71
2022-09-06T20:15:20.749Z,19.47
2022-09-06T20:20:25.707Z,18.99
2022-09-06T20:25:29.379Z,18.37
2022-09-06T20:30:35.576Z,18.63
2022-09-06T20:35:40.576Z,18.32
2022-09-06T20:40:44.033Z,17.71
2022-09-06T20:45:50.507Z,18.25
2022-09-06T20:51:02.849Z,18.21
2022-09-06T20:56:08.587Z,18.44
2022-09-06T21:01:20.521Z,18.71
2022-09-06T21:06:26.074Z,18.95
2022-09-06T21:11:30.986Z,18.34
2022-09-06T21:16:34.892Z,18.04
2022-09-06T21:21:42.120Z,18.91
2022-09-06T21:26:46.172Z,17.70
2022-09-06T21:31:50.105Z,17.65
2022-09-06T21:36:53.778Z,17.19
2022-09-06T21:41:57.680Z,18.00
2022-09-06T21:47:02.300Z,17.68
2022-09-06T21:52:05.921Z,17.23
2022-09-06T21:57:09.654Z,17.87
2022-09-06T22:02:13.560Z,17.78
2022-09-06T22:07:17.719Z,16.81
2022-09-06T22:12:24.907Z,18.01
2022-09-06T22:17:28.701Z,17.99
2022-09-06T22:22:32.893Z,17.89
2022-09-06T22:27:42.380Z,17.91
2022-09-06T22:32:45.871Z,17.86
2022-09-06T22:37:49.639Z,17.99
2022-09-06T22:42:53.980Z,18.06
2022-09-06T22:47:57.539Z,17.44
2022-09-06T22:53:01.085Z,17.45
2022-09-06T22:58:05.766Z,17.28
2022-09-06T23:03:09.215Z,18.06
2022-09-06T23:08:14.798Z,17.57
2022-09-06T23:13:18.584Z,17.48
2022-09-06T23:18:22.248Z,17.59
2022-09-06T23:23:25.840Z,16.94
2022-09-06T23:28:29.492Z,17.33
2022-09-06T23:33:35.950Z,17.73
2022-09-06T23:38:41.689Z,16.71
2022-09-06T23:43:45.658Z,17.32
2022-09-06T23:48:55.654Z,17.25
2022-09-06T23:53:59.274Z,16.78
2022-09-06T23:59:02.988Z,17.52
